sensor_id;sensor_type;location;lat;lon;timestamp;P1;durP1;ratioP1;P2;durP2;ratioP2
57029;SDS011;42920;45.306;20.448;2023-03-16T00:04:42;10.57;;;4.68;;
57029;SDS011;42920;45.306;20.448;2023-03-16T00:07:11;10.25;;;4.03;;
57029;SDS011;42920;45.306;20.448;2023-03-16T00:09:38;10.98;;;4.35;;
57029;SDS011;42920;45.306;20.448;2023-03-16T00:12:05;7.85;;;4.43;;
57029;SDS011;42920;45.306;20.448;2023-03-16T00:14:39;9.38;;;3.78;;
57029;SDS011;42920;45.306;20.448;2023-03-16T00:17:07;10.98;;;3.80;;
57029;SDS011;42920;45.306;20.448;2023-03-16T00:19:34;7.20;;;3.88;;
57029;SDS011;42920;45.306;20.448;2023-03-16T00:22:02;7.00;;;3.47;;
57029;SDS011;42920;45.306;20.448;2023-03-16T00:26:53;5.15;;;3.08;;
57029;SDS011;42920;45.306;20.448;2023-03-16T00:31:46;7.32;;;2.63;;
57029;SDS011;42920;45.306;20.448;2023-03-16T00:34:13;9.07;;;3.42;;
57029;SDS011;42920;45.306;20.448;2023-03-16T00:36:39;8.20;;;2.60;;
57029;SDS011;42920;45.306;20.448;2023-03-16T00:39:06;5.10;;;2.53;;
57029;SDS011;42920;45.306;20.448;2023-03-16T00:41:35;7.55;;;3.67;;
57029;SDS011;42920;45.306;20.448;2023-03-16T00:44:03;5.28;;;2.42;;
57029;SDS011;42920;45.306;20.448;2023-03-16T00:46:29;5.32;;;2.80;;
57029;SDS011;42920;45.306;20.448;2023-03-16T00:51:21;5.07;;;2.88;;
57029;SDS011;42920;45.306;20.448;2023-03-16T00:56:12;8.15;;;3.08;;
57029;SDS011;42920;45.306;20.448;2023-03-16T00:58:39;4.93;;;2.78;;
57029;SDS011;42920;45.306;20.448;2023-03-16T01:01:17;7.05;;;3.00;;
57029;SDS011;42920;45.306;20.448;2023-03-16T01:03:44;7.28;;;2.92;;
57029;SDS011;42920;45.306;20.448;2023-03-16T01:06:12;8.55;;;3.58;;
57029;SDS011;42920;45.306;20.448;2023-03-16T01:08:41;7.57;;;3.30;;
57029;SDS011;42920;45.306;20.448;2023-03-16T01:11:11;6.78;;;3.30;;
57029;SDS011;42920;45.306;20.448;2023-03-16T01:13:40;6.65;;;2.95;;
57029;SDS011;42920;45.306;20.448;2023-03-16T01:16:06;9.27;;;4.10;;
57029;SDS011;42920;45.306;20.448;2023-03-16T01:18:32;5.93;;;3.22;;
57029;SDS011;42920;45.306;20.448;2023-03-16T01:23:28;10.00;;;3.33;;
57029;SDS011;42920;45.306;20.448;2023-03-16T01:25:54;5.45;;;2.83;;
57029;SDS011;42920;45.306;20.448;2023-03-16T01:28:21;7.68;;;2.95;;
57029;SDS011;42920;45.306;20.448;2023-03-16T01:30:53;7.68;;;3.42;;
57029;SDS011;42920;45.306;20.448;2023-03-16T01:33:22;8.93;;;3.08;;
57029;SDS011;42920;45.306;20.448;2023-03-16T01:35:53;6.63;;;3.17;;
57029;SDS011;42920;45.306;20.448;2023-03-16T01:38:27;6.25;;;2.95;;
57029;SDS011;42920;45.306;20.448;2023-03-16T01:43:20;6.82;;;3.13;;
57029;SDS011;42920;45.306;20.448;2023-03-16T01:48:38;9.38;;;4.68;;
57029;SDS011;42920;45.306;20.448;2023-03-16T01:54:29;10.25;;;4.50;;
57029;SDS011;42920;45.306;20.448;2023-03-16T01:57:00;10.52;;;5.30;;
57029;SDS011;42920;45.306;20.448;2023-03-16T01:59:34;8.00;;;4.28;;
57029;SDS011;42920;45.306;20.448;2023-03-16T02:02:23;8.95;;;3.40;;
57029;SDS011;42920;45.306;20.448;2023-03-16T02:04:58;7.90;;;3.83;;
57029;SDS011;42920;45.306;20.448;2023-03-16T02:07:47;11.77;;;3.95;;
57029;SDS011;42920;45.306;20.448;2023-03-16T02:10:17;7.28;;;3.38;;
57029;SDS011;42920;45.306;20.448;2023-03-16T02:12:44;8.15;;;3.67;;
57029;SDS011;42920;45.306;20.448;2023-03-16T02:15:11;13.27;;;3.50;;
57029;SDS011;42920;45.306;20.448;2023-03-16T02:17:38;9.27;;;3.78;;
57029;SDS011;42920;45.306;20.448;2023-03-16T02:23:00;5.95;;;2.83;;
57029;SDS011;42920;45.306;20.448;2023-03-16T02:31:25;9.90;;;4.20;;
57029;SDS011;42920;45.306;20.448;2023-03-16T02:33:51;7.90;;;4.22;;
57029;SDS011;42920;45.306;20.448;2023-03-16T02:36:19;11.07;;;4.25;;
57029;SDS011;42920;45.306;20.448;2023-03-16T02:41:11;8.38;;;3.92;;
57029;SDS011;42920;45.306;20.448;2023-03-16T02:43:40;11.18;;;4.13;;
57029;SDS011;42920;45.306;20.448;2023-03-16T02:46:27;13.80;;;4.32;;
57029;SDS011;42920;45.306;20.448;2023-03-16T02:49:39;13.63;;;5.80;;
57029;SDS011;42920;45.306;20.448;2023-03-16T02:51:44;14.57;;;5.10;;
57029;SDS011;42920;45.306;20.448;2023-03-16T02:54:10;16.63;;;4.70;;
57029;SDS011;42920;45.306;20.448;2023-03-16T02:59:02;11.43;;;5.15;;
57029;SDS011;42920;45.306;20.448;2023-03-16T03:03:54;15.40;;;5.63;;
57029;SDS011;42920;45.306;20.448;2023-03-16T03:08:45;34.55;;;11.00;;
57029;SDS011;42920;45.306;20.448;2023-03-16T03:13:36;33.03;;;11.43;;
57029;SDS011;42920;45.306;20.448;2023-03-16T03:16:03;23.52;;;8.98;;
57029;SDS011;42920;45.306;20.448;2023-03-16T03:20:54;11.93;;;5.07;;
57029;SDS011;42920;45.306;20.448;2023-03-16T03:25:46;13.23;;;5.57;;
57029;SDS011;42920;45.306;20.448;2023-03-16T03:28:12;14.88;;;7.07;;
57029;SDS011;42920;45.306;20.448;2023-03-16T03:30:38;21.80;;;7.95;;
57029;SDS011;42920;45.306;20.448;2023-03-16T03:35:29;11.30;;;5.30;;
57029;SDS011;42920;45.306;20.448;2023-03-16T03:40:21;9.27;;;3.97;;
57029;SDS011;42920;45.306;20.448;2023-03-16T03:45:13;7.70;;;3.83;;
57029;SDS011;42920;45.306;20.448;2023-03-16T03:47:39;7.95;;;4.57;;
57029;SDS011;42920;45.306;20.448;2023-03-16T03:50:06;11.98;;;5.03;;
57029;SDS011;42920;45.306;20.448;2023-03-16T03:52:34;11.05;;;4.43;;
57029;SDS011;42920;45.306;20.448;2023-03-16T03:57:25;11.48;;;5.05;;
57029;SDS011;42920;45.306;20.448;2023-03-16T04:02:16;13.52;;;5.25;;
57029;SDS011;42920;45.306;20.448;2023-03-16T04:07:08;11.13;;;4.85;;
57029;SDS011;42920;45.306;20.448;2023-03-16T04:09:34;12.77;;;6.32;;
57029;SDS011;42920;45.306;20.448;2023-03-16T04:12:00;12.65;;;6.10;;
57029;SDS011;42920;45.306;20.448;2023-03-16T04:14:27;16.85;;;5.97;;
57029;SDS011;42920;45.306;20.448;2023-03-16T04:16:54;24.08;;;7.43;;
57029;SDS011;42920;45.306;20.448;2023-03-16T04:19:20;16.55;;;6.75;;
57029;SDS011;42920;45.306;20.448;2023-03-16T04:21:47;23.67;;;9.30;;
57029;SDS011;42920;45.306;20.448;2023-03-16T04:24:13;16.65;;;6.95;;
57029;SDS011;42920;45.306;20.448;2023-03-16T04:29:05;22.92;;;7.78;;
57029;SDS011;42920;45.306;20.448;2023-03-16T04:33:57;20.88;;;8.27;;
57029;SDS011;42920;45.306;20.448;2023-03-16T04:38:49;15.63;;;6.40;;
57029;SDS011;42920;45.306;20.448;2023-03-16T04:43:42;10.70;;;5.10;;
57029;SDS011;42920;45.306;20.448;2023-03-16T04:46:08;19.88;;;7.28;;
57029;SDS011;42920;45.306;20.448;2023-03-16T04:48:35;17.67;;;7.25;;
57029;SDS011;42920;45.306;20.448;2023-03-16T04:51:02;22.25;;;8.75;;
57029;SDS011;42920;45.306;20.448;2023-03-16T04:53:28;17.42;;;6.75;;
57029;SDS011;42920;45.306;20.448;2023-03-16T04:55:56;16.45;;;6.85;;
57029;SDS011;42920;45.306;20.448;2023-03-16T04:58:22;13.52;;;5.88;;
57029;SDS011;42920;45.306;20.448;2023-03-16T05:00:50;19.35;;;7.68;;
57029;SDS011;42920;45.306;20.448;2023-03-16T05:03:16;15.15;;;7.32;;
57029;SDS011;42920;45.306;20.448;2023-03-16T05:08:07;10.05;;;5.75;;
57029;SDS011;42920;45.306;20.448;2023-03-16T05:10:34;13.15;;;6.28;;
57029;SDS011;42920;45.306;20.448;2023-03-16T05:15:26;12.57;;;6.05;;
57029;SDS011;42920;45.306;20.448;2023-03-16T05:20:19;9.43;;;4.28;;
57029;SDS011;42920;45.306;20.448;2023-03-16T05:22:45;14.52;;;6.13;;
57029;SDS011;42920;45.306;20.448;2023-03-16T05:25:12;14.55;;;5.68;;
57029;SDS011;42920;45.306;20.448;2023-03-16T05:27:40;9.73;;;5.80;;
57029;SDS011;42920;45.306;20.448;2023-03-16T05:30:08;21.33;;;6.68;;
57029;SDS011;42920;45.306;20.448;2023-03-16T05:32:35;10.23;;;6.13;;
57029;SDS011;42920;45.306;20.448;2023-03-16T05:37:27;14.60;;;7.10;;
57029;SDS011;42920;45.306;20.448;2023-03-16T05:42:19;18.85;;;8.02;;
57029;SDS011;42920;45.306;20.448;2023-03-16T05:47:10;16.27;;;6.72;;
57029;SDS011;42920;45.306;20.448;2023-03-16T05:52:02;13.57;;;6.68;;
57029;SDS011;42920;45.306;20.448;2023-03-16T05:54:28;14.07;;;6.13;;
57029;SDS011;42920;45.306;20.448;2023-03-16T05:59:19;13.23;;;7.22;;
57029;SDS011;42920;45.306;20.448;2023-03-16T06:04:11;14.70;;;6.90;;
57029;SDS011;42920;45.306;20.448;2023-03-16T06:09:02;17.45;;;7.65;;
57029;SDS011;42920;45.306;20.448;2023-03-16T06:11:28;13.93;;;6.82;;
57029;SDS011;42920;45.306;20.448;2023-03-16T06:13:57;17.27;;;7.05;;
57029;SDS011;42920;45.306;20.448;2023-03-16T06:16:23;18.52;;;7.50;;
57029;SDS011;42920;45.306;20.448;2023-03-16T06:21:15;18.10;;;9.77;;
57029;SDS011;42920;45.306;20.448;2023-03-16T06:26:06;13.48;;;7.70;;
57029;SDS011;42920;45.306;20.448;2023-03-16T06:30:58;18.67;;;7.47;;
57029;SDS011;42920;45.306;20.448;2023-03-16T06:35:49;22.10;;;8.98;;
57029;SDS011;42920;45.306;20.448;2023-03-16T06:40:41;13.27;;;6.30;;
57029;SDS011;42920;45.306;20.448;2023-03-16T06:45:33;10.98;;;4.97;;
57029;SDS011;42920;45.306;20.448;2023-03-16T06:50:24;14.05;;;6.10;;
57029;SDS011;42920;45.306;20.448;2023-03-16T06:52:51;12.20;;;5.07;;
57029;SDS011;42920;45.306;20.448;2023-03-16T06:57:42;14.23;;;6.38;;
57029;SDS011;42920;45.306;20.448;2023-03-16T07:02:35;10.77;;;5.40;;
57029;SDS011;42920;45.306;20.448;2023-03-16T07:05:03;16.90;;;7.10;;
57029;SDS011;42920;45.306;20.448;2023-03-16T07:07:29;17.45;;;7.53;;
57029;SDS011;42920;45.306;20.448;2023-03-16T07:12:20;13.68;;;6.18;;
57029;SDS011;42920;45.306;20.448;2023-03-16T07:17:12;17.58;;;6.25;;
57029;SDS011;42920;45.306;20.448;2023-03-16T07:22:03;15.73;;;7.30;;
57029;SDS011;42920;45.306;20.448;2023-03-16T07:26:54;21.60;;;7.78;;
57029;SDS011;42920;45.306;20.448;2023-03-16T07:31:47;13.55;;;6.72;;
57029;SDS011;42920;45.306;20.448;2023-03-16T07:36:39;13.15;;;5.97;;
57029;SDS011;42920;45.306;20.448;2023-03-16T07:41:30;16.25;;;6.60;;
57029;SDS011;42920;45.306;20.448;2023-03-16T07:46:22;12.90;;;6.10;;
57029;SDS011;42920;45.306;20.448;2023-03-16T07:48:48;22.95;;;8.52;;
57029;SDS011;42920;45.306;20.448;2023-03-16T07:53:41;7.40;;;5.20;;
57029;SDS011;42920;45.306;20.448;2023-03-16T07:58:32;10.43;;;5.70;;
57029;SDS011;42920;45.306;20.448;2023-03-16T08:03:25;11.77;;;5.43;;
57029;SDS011;42920;45.306;20.448;2023-03-16T08:05:53;11.77;;;5.95;;
57029;SDS011;42920;45.306;20.448;2023-03-16T08:08:19;15.30;;;5.72;;
57029;SDS011;42920;45.306;20.448;2023-03-16T08:10:49;10.15;;;6.07;;
57029;SDS011;42920;45.306;20.448;2023-03-16T08:13:18;17.77;;;6.82;;
57029;SDS011;42920;45.306;20.448;2023-03-16T08:15:49;13.75;;;5.95;;
57029;SDS011;42920;45.306;20.448;2023-03-16T08:18:26;13.38;;;5.22;;
57029;SDS011;42920;45.306;20.448;2023-03-16T08:20:54;12.43;;;4.65;;
57029;SDS011;42920;45.306;20.448;2023-03-16T08:23:20;11.95;;;4.97;;
57029;SDS011;42920;45.306;20.448;2023-03-16T08:25:46;22.92;;;6.22;;
57029;SDS011;42920;45.306;20.448;2023-03-16T08:28:16;11.35;;;4.95;;
57029;SDS011;42920;45.306;20.448;2023-03-16T08:30:46;11.23;;;5.30;;
57029;SDS011;42920;45.306;20.448;2023-03-16T08:33:13;12.88;;;5.00;;
57029;SDS011;42920;45.306;20.448;2023-03-16T08:35:42;11.57;;;4.45;;
57029;SDS011;42920;45.306;20.448;2023-03-16T08:38:08;12.27;;;5.20;;
57029;SDS011;42920;45.306;20.448;2023-03-16T08:40:35;14.00;;;4.78;;
57029;SDS011;42920;45.306;20.448;2023-03-16T08:43:02;12.35;;;4.68;;
57029;SDS011;42920;45.306;20.448;2023-03-16T08:45:28;10.00;;;4.22;;
57029;SDS011;42920;45.306;20.448;2023-03-16T08:50:20;7.03;;;4.18;;
57029;SDS011;42920;45.306;20.448;2023-03-16T08:52:46;9.57;;;3.92;;
57029;SDS011;42920;45.306;20.448;2023-03-16T08:55:13;11.18;;;3.97;;
57029;SDS011;42920;45.306;20.448;2023-03-16T08:57:39;7.88;;;4.28;;
57029;SDS011;42920;45.306;20.448;2023-03-16T09:00:05;10.65;;;4.55;;
57029;SDS011;42920;45.306;20.448;2023-03-16T09:02:37;11.55;;;4.45;;
57029;SDS011;42920;45.306;20.448;2023-03-16T09:05:04;9.70;;;4.60;;
57029;SDS011;42920;45.306;20.448;2023-03-16T09:07:32;10.32;;;4.55;;
57029;SDS011;42920;45.306;20.448;2023-03-16T09:09:59;7.75;;;4.38;;
57029;SDS011;42920;45.306;20.448;2023-03-16T09:14:51;9.10;;;3.90;;
57029;SDS011;42920;45.306;20.448;2023-03-16T09:17:18;8.00;;;3.92;;
57029;SDS011;42920;45.306;20.448;2023-03-16T09:19:45;13.38;;;4.78;;
57029;SDS011;42920;45.306;20.448;2023-03-16T09:22:11;8.25;;;4.22;;
57029;SDS011;42920;45.306;20.448;2023-03-16T09:24:37;10.73;;;4.03;;
57029;SDS011;42920;45.306;20.448;2023-03-16T09:27:02;10.88;;;4.47;;
57029;SDS011;42920;45.306;20.448;2023-03-16T09:29:29;19.63;;;5.70;;
57029;SDS011;42920;45.306;20.448;2023-03-16T09:31:55;12.85;;;4.30;;
57029;SDS011;42920;45.306;20.448;2023-03-16T09:34:21;12.90;;;5.65;;
57029;SDS011;42920;45.306;20.448;2023-03-16T09:39:12;11.25;;;5.07;;
57029;SDS011;42920;45.306;20.448;2023-03-16T09:47:01;15.07;;;4.93;;
57029;SDS011;42920;45.306;20.448;2023-03-16T09:49:32;10.95;;;4.88;;
57029;SDS011;42920;45.306;20.448;2023-03-16T09:54:47;14.48;;;5.25;;
57029;SDS011;42920;45.306;20.448;2023-03-16T09:57:23;9.13;;;4.75;;
57029;SDS011;42920;45.306;20.448;2023-03-16T09:59:53;12.65;;;5.20;;
57029;SDS011;42920;45.306;20.448;2023-03-16T10:05:27;8.70;;;4.32;;
57029;SDS011;42920;45.306;20.448;2023-03-16T10:15:50;7.35;;;3.60;;
57029;SDS011;42920;45.306;20.448;2023-03-16T10:18:22;10.70;;;4.18;;
57029;SDS011;42920;45.306;20.448;2023-03-16T10:20:53;6.80;;;2.85;;
57029;SDS011;42920;45.306;20.448;2023-03-16T10:23:21;12.65;;;4.25;;
57029;SDS011;42920;45.306;20.448;2023-03-16T10:25:52;7.00;;;3.70;;
57029;SDS011;42920;45.306;20.448;2023-03-16T10:28:22;6.72;;;3.67;;
57029;SDS011;42920;45.306;20.448;2023-03-16T10:30:51;8.93;;;3.90;;
57029;SDS011;42920;45.306;20.448;2023-03-16T10:33:23;8.18;;;3.75;;
57029;SDS011;42920;45.306;20.448;2023-03-16T10:36:03;9.27;;;4.10;;
57029;SDS011;42920;45.306;20.448;2023-03-16T10:43:44;10.15;;;3.83;;
57029;SDS011;42920;45.306;20.448;2023-03-16T10:46:12;9.77;;;5.00;;
57029;SDS011;42920;45.306;20.448;2023-03-16T10:48:38;6.70;;;3.83;;
57029;SDS011;42920;45.306;20.448;2023-03-16T10:51:09;17.08;;;4.07;;
57029;SDS011;42920;45.306;20.448;2023-03-16T10:53:38;10.73;;;4.28;;
57029;SDS011;42920;45.306;20.448;2023-03-16T10:56:09;11.45;;;4.20;;
57029;SDS011;42920;45.306;20.448;2023-03-16T10:58:38;8.38;;;3.70;;
57029;SDS011;42920;45.306;20.448;2023-03-16T11:01:20;13.77;;;4.18;;
57029;SDS011;42920;45.306;20.448;2023-03-16T11:03:51;13.27;;;5.30;;
57029;SDS011;42920;45.306;20.448;2023-03-16T11:06:23;11.32;;;4.35;;
57029;SDS011;42920;45.306;20.448;2023-03-16T11:09:01;9.30;;;4.07;;
57029;SDS011;42920;45.306;20.448;2023-03-16T11:11:36;8.60;;;4.93;;
57029;SDS011;42920;45.306;20.448;2023-03-16T11:14:03;6.15;;;4.00;;
57029;SDS011;42920;45.306;20.448;2023-03-16T11:16:41;6.30;;;3.50;;
57029;SDS011;42920;45.306;20.448;2023-03-16T11:19:19;10.35;;;4.18;;
57029;SDS011;42920;45.306;20.448;2023-03-16T11:30:23;12.80;;;3.92;;
57029;SDS011;42920;45.306;20.448;2023-03-16T11:32:55;17.23;;;7.45;;
57029;SDS011;42920;45.306;20.448;2023-03-16T11:41:41;8.20;;;4.35;;
57029;SDS011;42920;45.306;20.448;2023-03-16T11:44:32;10.52;;;4.80;;
57029;SDS011;42920;45.306;20.448;2023-03-16T11:49:59;8.13;;;4.30;;
57029;SDS011;42920;45.306;20.448;2023-03-16T12:01:28;8.52;;;3.47;;
57029;SDS011;42920;45.306;20.448;2023-03-16T12:04:01;15.40;;;3.83;;
57029;SDS011;42920;45.306;20.448;2023-03-16T12:06:39;11.77;;;3.60;;
57029;SDS011;42920;45.306;20.448;2023-03-16T12:12:21;11.55;;;4.43;;
57029;SDS011;42920;45.306;20.448;2023-03-16T12:17:48;9.20;;;4.47;;
57029;SDS011;42920;45.306;20.448;2023-03-16T12:20:26;6.43;;;4.13;;
57029;SDS011;42920;45.306;20.448;2023-03-16T12:23:03;10.18;;;3.70;;
57029;SDS011;42920;45.306;20.448;2023-03-16T12:25:35;6.55;;;3.53;;
57029;SDS011;42920;45.306;20.448;2023-03-16T12:28:05;8.38;;;4.25;;
57029;SDS011;42920;45.306;20.448;2023-03-16T12:39:23;6.50;;;3.85;;
57029;SDS011;42920;45.306;20.448;2023-03-16T12:49:52;7.35;;;3.45;;
57029;SDS011;42920;45.306;20.448;2023-03-16T12:52:18;9.45;;;3.75;;
57029;SDS011;42920;45.306;20.448;2023-03-16T12:55:05;8.40;;;3.97;;
57029;SDS011;42920;45.306;20.448;2023-03-16T12:57:42;8.70;;;3.85;;
57029;SDS011;42920;45.306;20.448;2023-03-16T13:00:11;6.20;;;3.53;;
57029;SDS011;42920;45.306;20.448;2023-03-16T13:02:43;6.95;;;3.22;;
57029;SDS011;42920;45.306;20.448;2023-03-16T13:05:26;5.18;;;2.97;;
57029;SDS011;42920;45.306;20.448;2023-03-16T13:08:07;8.77;;;4.03;;
57029;SDS011;42920;45.306;20.448;2023-03-16T13:10:40;8.25;;;3.92;;
57029;SDS011;42920;45.306;20.448;2023-03-16T13:13:11;9.23;;;4.25;;
57029;SDS011;42920;45.306;20.448;2023-03-16T13:15:39;8.20;;;3.60;;
57029;SDS011;42920;45.306;20.448;2023-03-16T13:18:19;8.93;;;3.65;;
57029;SDS011;42920;45.306;20.448;2023-03-16T13:26:03;11.50;;;4.43;;
57029;SDS011;42920;45.306;20.448;2023-03-16T13:28:59;6.32;;;3.42;;
57029;SDS011;42920;45.306;20.448;2023-03-16T13:31:36;6.30;;;3.40;;
57029;SDS011;42920;45.306;20.448;2023-03-16T13:34:06;9.23;;;4.68;;
57029;SDS011;42920;45.306;20.448;2023-03-16T13:36:38;9.70;;;4.88;;
57029;SDS011;42920;45.306;20.448;2023-03-16T13:39:12;12.98;;;5.25;;
57029;SDS011;42920;45.306;20.448;2023-03-16T13:44:50;9.70;;;5.30;;
57029;SDS011;42920;45.306;20.448;2023-03-16T13:47:18;15.70;;;5.43;;
57029;SDS011;42920;45.306;20.448;2023-03-16T13:49:55;7.63;;;4.50;;
57029;SDS011;42920;45.306;20.448;2023-03-16T13:54:57;8.27;;;4.00;;
57029;SDS011;42920;45.306;20.448;2023-03-16T13:57:28;9.48;;;4.22;;
57029;SDS011;42920;45.306;20.448;2023-03-16T14:00:00;5.50;;;3.20;;
57029;SDS011;42920;45.306;20.448;2023-03-16T14:02:29;8.07;;;3.92;;
57029;SDS011;42920;45.306;20.448;2023-03-16T14:04:55;6.57;;;3.47;;
57029;SDS011;42920;45.306;20.448;2023-03-16T14:07:21;10.50;;;3.53;;
57029;SDS011;42920;45.306;20.448;2023-03-16T14:09:48;9.55;;;4.70;;
57029;SDS011;42920;45.306;20.448;2023-03-16T14:12:17;9.73;;;4.20;;
57029;SDS011;42920;45.306;20.448;2023-03-16T14:14:48;8.73;;;4.90;;
57029;SDS011;42920;45.306;20.448;2023-03-16T14:17:19;11.23;;;4.35;;
57029;SDS011;42920;45.306;20.448;2023-03-16T14:22:21;10.00;;;4.60;;
57029;SDS011;42920;45.306;20.448;2023-03-16T14:24:58;5.63;;;3.90;;
57029;SDS011;42920;45.306;20.448;2023-03-16T14:27:27;9.00;;;3.50;;
57029;SDS011;42920;45.306;20.448;2023-03-16T14:30:15;7.45;;;3.50;;
57029;SDS011;42920;45.306;20.448;2023-03-16T14:32:58;8.60;;;3.42;;
57029;SDS011;42920;45.306;20.448;2023-03-16T14:35:41;8.20;;;3.83;;
57029;SDS011;42920;45.306;20.448;2023-03-16T14:40:57;11.20;;;4.20;;
57029;SDS011;42920;45.306;20.448;2023-03-16T14:43:29;7.40;;;3.88;;
57029;SDS011;42920;45.306;20.448;2023-03-16T14:45:57;8.75;;;4.35;;
57029;SDS011;42920;45.306;20.448;2023-03-16T14:48:24;8.15;;;3.97;;
57029;SDS011;42920;45.306;20.448;2023-03-16T14:50:53;8.32;;;4.32;;
57029;SDS011;42920;45.306;20.448;2023-03-16T14:53:21;7.55;;;4.15;;
57029;SDS011;42920;45.306;20.448;2023-03-16T14:55:52;7.30;;;3.60;;
57029;SDS011;42920;45.306;20.448;2023-03-16T14:58:21;10.45;;;4.47;;
57029;SDS011;42920;45.306;20.448;2023-03-16T15:00:47;8.23;;;3.70;;
57029;SDS011;42920;45.306;20.448;2023-03-16T15:03:16;10.52;;;3.78;;
57029;SDS011;42920;45.306;20.448;2023-03-16T15:05:47;9.43;;;3.53;;
57029;SDS011;42920;45.306;20.448;2023-03-16T15:08:18;9.93;;;3.10;;
57029;SDS011;42920;45.306;20.448;2023-03-16T15:10:51;5.75;;;2.90;;
57029;SDS011;42920;45.306;20.448;2023-03-16T15:13:19;8.88;;;3.65;;
57029;SDS011;42920;45.306;20.448;2023-03-16T15:16:02;8.75;;;3.58;;
57029;SDS011;42920;45.306;20.448;2023-03-16T15:18:29;9.43;;;3.97;;
57029;SDS011;42920;45.306;20.448;2023-03-16T15:20:59;10.05;;;3.80;;
57029;SDS011;42920;45.306;20.448;2023-03-16T15:23:26;9.07;;;3.70;;
57029;SDS011;42920;45.306;20.448;2023-03-16T15:25:53;11.82;;;4.18;;
57029;SDS011;42920;45.306;20.448;2023-03-16T15:28:25;8.98;;;3.65;;
57029;SDS011;42920;45.306;20.448;2023-03-16T15:30:52;6.90;;;3.47;;
57029;SDS011;42920;45.306;20.448;2023-03-16T15:33:19;10.27;;;3.80;;
57029;SDS011;42920;45.306;20.448;2023-03-16T15:35:46;11.40;;;3.50;;
57029;SDS011;42920;45.306;20.448;2023-03-16T15:38:20;5.30;;;3.03;;
57029;SDS011;42920;45.306;20.448;2023-03-16T15:40:57;6.82;;;3.15;;
57029;SDS011;42920;45.306;20.448;2023-03-16T15:43:25;8.65;;;3.70;;
57029;SDS011;42920;45.306;20.448;2023-03-16T15:45:56;7.07;;;3.55;;
57029;SDS011;42920;45.306;20.448;2023-03-16T15:48:23;9.55;;;5.07;;
57029;SDS011;42920;45.306;20.448;2023-03-16T15:50:59;13.63;;;4.15;;
57029;SDS011;42920;45.306;20.448;2023-03-16T15:53:31;12.40;;;3.38;;
57029;SDS011;42920;45.306;20.448;2023-03-16T15:56:08;8.27;;;3.05;;
57029;SDS011;42920;45.306;20.448;2023-03-16T15:58:38;6.70;;;2.85;;
57029;SDS011;42920;45.306;20.448;2023-03-16T16:01:05;7.65;;;3.50;;
57029;SDS011;42920;45.306;20.448;2023-03-16T16:03:32;6.82;;;2.92;;
57029;SDS011;42920;45.306;20.448;2023-03-16T16:05:58;6.15;;;2.45;;
57029;SDS011;42920;45.306;20.448;2023-03-16T16:08:24;7.63;;;2.45;;
57029;SDS011;42920;45.306;20.448;2023-03-16T16:10:50;7.65;;;3.20;;
57029;SDS011;42920;45.306;20.448;2023-03-16T16:13:27;5.93;;;3.25;;
57029;SDS011;42920;45.306;20.448;2023-03-16T16:15:57;7.65;;;3.33;;
57029;SDS011;42920;45.306;20.448;2023-03-16T16:18:26;8.93;;;3.45;;
57029;SDS011;42920;45.306;20.448;2023-03-16T16:20:56;8.98;;;3.90;;
57029;SDS011;42920;45.306;20.448;2023-03-16T16:23:23;7.10;;;3.42;;
57029;SDS011;42920;45.306;20.448;2023-03-16T16:25:53;6.97;;;3.58;;
57029;SDS011;42920;45.306;20.448;2023-03-16T16:28:23;7.40;;;3.55;;
57029;SDS011;42920;45.306;20.448;2023-03-16T16:30:51;11.30;;;5.22;;
57029;SDS011;42920;45.306;20.448;2023-03-16T16:35:49;7.88;;;3.95;;
57029;SDS011;42920;45.306;20.448;2023-03-16T16:38:16;9.52;;;4.45;;
57029;SDS011;42920;45.306;20.448;2023-03-16T16:40:42;8.82;;;4.72;;
57029;SDS011;42920;45.306;20.448;2023-03-16T16:43:32;14.07;;;5.20;;
57029;SDS011;42920;45.306;20.448;2023-03-16T16:46:11;13.15;;;4.40;;
57029;SDS011;42920;45.306;20.448;2023-03-16T16:51:26;11.43;;;5.50;;
57029;SDS011;42920;45.306;20.448;2023-03-16T16:53:54;10.48;;;3.97;;
57029;SDS011;42920;45.306;20.448;2023-03-16T16:56:28;10.80;;;4.25;;
57029;SDS011;42920;45.306;20.448;2023-03-16T16:58:57;10.35;;;3.53;;
57029;SDS011;42920;45.306;20.448;2023-03-16T17:01:29;10.82;;;4.13;;
57029;SDS011;42920;45.306;20.448;2023-03-16T17:03:57;9.63;;;4.13;;
57029;SDS011;42920;45.306;20.448;2023-03-16T17:06:23;12.13;;;4.50;;
57029;SDS011;42920;45.306;20.448;2023-03-16T17:08:49;10.60;;;4.80;;
57029;SDS011;42920;45.306;20.448;2023-03-16T17:13:47;11.50;;;4.95;;
57029;SDS011;42920;45.306;20.448;2023-03-16T17:16:17;9.85;;;4.82;;
57029;SDS011;42920;45.306;20.448;2023-03-16T17:18:46;10.18;;;4.90;;
57029;SDS011;42920;45.306;20.448;2023-03-16T17:21:18;13.63;;;5.70;;
57029;SDS011;42920;45.306;20.448;2023-03-16T17:23:45;14.93;;;5.47;;
57029;SDS011;42920;45.306;20.448;2023-03-16T17:28:57;11.68;;;5.70;;
57029;SDS011;42920;45.306;20.448;2023-03-16T17:31:36;11.90;;;4.85;;
57029;SDS011;42920;45.306;20.448;2023-03-16T17:34:14;12.27;;;5.60;;
57029;SDS011;42920;45.306;20.448;2023-03-16T17:36:44;11.68;;;5.65;;
57029;SDS011;42920;45.306;20.448;2023-03-16T17:39:24;10.90;;;5.40;;
57029;SDS011;42920;45.306;20.448;2023-03-16T17:42:02;14.00;;;5.60;;
57029;SDS011;42920;45.306;20.448;2023-03-16T17:44:33;12.82;;;5.88;;
57029;SDS011;42920;45.306;20.448;2023-03-16T17:47:02;15.73;;;6.43;;
57029;SDS011;42920;45.306;20.448;2023-03-16T17:49:35;14.77;;;7.68;;
57029;SDS011;42920;45.306;20.448;2023-03-16T17:54:26;13.05;;;6.18;;
57029;SDS011;42920;45.306;20.448;2023-03-16T17:59:19;14.45;;;5.50;;
57029;SDS011;42920;45.306;20.448;2023-03-16T18:01:46;13.13;;;5.70;;
57029;SDS011;42920;45.306;20.448;2023-03-16T18:04:16;17.35;;;6.53;;
57029;SDS011;42920;45.306;20.448;2023-03-16T18:06:47;10.85;;;5.78;;
57029;SDS011;42920;45.306;20.448;2023-03-16T18:09:13;14.75;;;5.40;;
57029;SDS011;42920;45.306;20.448;2023-03-16T18:11:41;11.70;;;4.45;;
57029;SDS011;42920;45.306;20.448;2023-03-16T18:16:48;12.05;;;4.03;;
57029;SDS011;42920;45.306;20.448;2023-03-16T18:21:47;11.82;;;5.05;;
57029;SDS011;42920;45.306;20.448;2023-03-16T18:24:14;10.90;;;5.25;;
57029;SDS011;42920;45.306;20.448;2023-03-16T18:29:05;15.18;;;6.05;;
57029;SDS011;42920;45.306;20.448;2023-03-16T18:33:58;12.55;;;6.40;;
57029;SDS011;42920;45.306;20.448;2023-03-16T18:36:26;14.57;;;7.00;;
57029;SDS011;42920;45.306;20.448;2023-03-16T18:38:56;15.18;;;7.13;;
57029;SDS011;42920;45.306;20.448;2023-03-16T18:41:26;16.95;;;7.32;;
57029;SDS011;42920;45.306;20.448;2023-03-16T18:43:58;14.93;;;6.97;;
57029;SDS011;42920;45.306;20.448;2023-03-16T18:46:27;15.32;;;6.75;;
57029;SDS011;42920;45.306;20.448;2023-03-16T18:48:55;17.92;;;8.02;;
57029;SDS011;42920;45.306;20.448;2023-03-16T18:51:26;24.48;;;9.25;;
57029;SDS011;42920;45.306;20.448;2023-03-16T18:53:53;28.30;;;11.50;;
57029;SDS011;42920;45.306;20.448;2023-03-16T18:56:21;37.90;;;14.63;;
57029;SDS011;42920;45.306;20.448;2023-03-16T18:58:49;31.20;;;10.98;;
57029;SDS011;42920;45.306;20.448;2023-03-16T19:01:19;23.38;;;9.35;;
57029;SDS011;42920;45.306;20.448;2023-03-16T19:03:46;24.25;;;10.13;;
57029;SDS011;42920;45.306;20.448;2023-03-16T19:06:14;28.00;;;10.30;;
57029;SDS011;42920;45.306;20.448;2023-03-16T19:08:53;23.23;;;9.55;;